createdAt,value
2022-08-26T00:01:45.049Z,17.25
2022-08-26T00:04:12.755Z,17.20
2022-08-26T00:06:42.649Z,17.18
2022-08-26T00:09:15.928Z,17.07
2022-08-26T00:11:45.349Z,17.02
2022-08-26T00:14:13.680Z,17.01
2022-08-26T00:16:47.995Z,17.10
2022-08-26T00:19:18.368Z,17.15
2022-08-26T00:21:48.750Z,17.18
2022-08-26T00:24:19.367Z,17.03
2022-08-26T00:26:45.966Z,16.88
2022-08-26T00:29:13.120Z,16.88
2022-08-26T00:31:40.701Z,16.82
2022-08-26T00:34:09.433Z,16.77
2022-08-26T00:36:37.190Z,16.74
2022-08-26T00:39:04.714Z,16.76
2022-08-26T00:41:35.810Z,16.70
2022-08-26T00:44:02.629Z,16.62
2022-08-26T00:46:36.661Z,16.50
2022-08-26T00:49:17.915Z,16.44
2022-08-26T00:51:51.443Z,16.44
2022-08-26T00:54:22.834Z,16.47
2022-08-26T00:56:57.674Z,16.42
2022-08-26T00:59:28.812Z,16.36
2022-08-26T01:01:56.769Z,16.39
2022-08-26T01:04:24.694Z,16.36
2022-08-26T01:06:54.667Z,16.27
2022-08-26T01:09:23.063Z,16.23
2022-08-26T01:11:55.184Z,16.28
2022-08-26T01:14:24.286Z,16.25
2022-08-26T01:16:50.820Z,16.24
2022-08-26T01:19:40.330Z,16.23
2022-08-26T01:22:17.089Z,16.21
2022-08-26T01:24:43.719Z,16.17
2022-08-26T01:27:15.595Z,16.14
2022-08-26T01:29:46.295Z,16.12
2022-08-26T01:32:21.506Z,16.07
2022-08-26T01:34:50.107Z,16.07
2022-08-26T01:37:23.447Z,16.00
2022-08-26T01:39:54.416Z,16.05
2022-08-26T01:42:24.586Z,16.09
2022-08-26T01:45:03.575Z,16.18
2022-08-26T01:47:35.414Z,16.17
2022-08-26T01:50:09.159Z,16.13
2022-08-26T01:52:41.304Z,16.04
2022-08-26T01:55:11.508Z,15.99
2022-08-26T01:57:38.115Z,15.96
2022-08-26T02:00:13.155Z,16.01
2022-08-26T02:02:50.186Z,16.06
2022-08-26T02:05:22.024Z,16.00
2022-08-26T02:07:50.638Z,15.96
2022-08-26T02:10:17.176Z,16.04
2022-08-26T02:12:46.394Z,16.12
2022-08-26T02:15:13.199Z,16.07
2022-08-26T02:17:46.784Z,15.97
2022-08-26T02:20:20.610Z,16.03
2022-08-26T02:22:48.439Z,16.11
2022-08-26T02:25:50.213Z,16.09
2022-08-26T02:28:19.774Z,16.13
2022-08-26T02:30:47.655Z,16.06
2022-08-26T02:33:14.335Z,16.06
2022-08-26T02:35:41.277Z,16.10
2022-08-26T02:38:11.247Z,16.05
2022-08-26T02:40:42.099Z,16.06
2022-08-26T02:43:09.602Z,16.08
2022-08-26T02:45:36.967Z,16.09
2022-08-26T02:48:13.307Z,16.05
2022-08-26T02:50:40.982Z,16.05
2022-08-26T02:53:12.099Z,16.04
2022-08-26T02:55:40.835Z,16.01
2022-08-26T02:58:09.702Z,16.01
2022-08-26T03:00:38.409Z,15.93
2022-08-26T03:03:05.851Z,15.90
2022-08-26T03:05:33.070Z,15.88
2022-08-26T03:08:01.627Z,15.94
2022-08-26T03:10:29.283Z,15.92
2022-08-26T03:12:55.831Z,15.88
2022-08-26T03:15:22.815Z,15.86
2022-08-26T03:17:50.241Z,15.75
2022-08-26T03:20:18.098Z,15.67
2022-08-26T03:22:45.926Z,15.64
2022-08-26T03:25:16.550Z,15.67
2022-08-26T03:27:43.802Z,15.69
2022-08-26T03:30:31.261Z,15.71
2022-08-26T03:32:58.272Z,15.47
2022-08-26T03:35:26.191Z,15.42
2022-08-26T03:37:53.518Z,15.38
2022-08-26T03:40:21.462Z,15.47
2022-08-26T03:42:49.750Z,15.54
2022-08-26T03:45:19.319Z,15.51
2022-08-26T03:47:47.843Z,15.36
2022-08-26T03:50:22.647Z,15.33
2022-08-26T03:52:52.443Z,15.35
2022-08-26T03:55:23.765Z,15.25
2022-08-26T03:57:51.010Z,15.15
2022-08-26T04:00:19.347Z,15.15
2022-08-26T04:02:49.186Z,15.12
2022-08-26T04:05:19.606Z,15.10
2022-08-26T04:07:48.533Z,15.09
2022-08-26T04:10:20.268Z,15.10
2022-08-26T04:12:47.207Z,15.05
2022-08-26T04:15:16.601Z,14.98
2022-08-26T04:17:44.974Z,14.94
2022-08-26T04:20:17.991Z,14.91
2022-08-26T04:22:46.070Z,14.95
2022-08-26T04:25:13.630Z,14.99
2022-08-26T04:27:40.323Z,14.99
2022-08-26T04:30:08.975Z,15.04
2022-08-26T04:32:37.258Z,15.03
2022-08-26T04:35:05.397Z,15.01
2022-08-26T04:37:33.453Z,15.03
2022-08-26T04:40:00.140Z,14.98
2022-08-26T04:42:26.907Z,15.03
2022-08-26T04:44:53.409Z,15.02
2022-08-26T04:47:19.926Z,15.05
2022-08-26T04:49:46.488Z,14.98
2022-08-26T04:52:13.046Z,14.93
2022-08-26T04:54:39.589Z,14.95
2022-08-26T04:57:08.734Z,14.94
2022-08-26T04:59:39.192Z,14.90
2022-08-26T05:02:06.953Z,14.87
2022-08-26T05:04:33.936Z,14.96
2022-08-26T05:07:02.997Z,14.98
2022-08-26T05:09:29.638Z,15.03
2022-08-26T05:11:57.354Z,15.11
2022-08-26T05:14:23.943Z,15.09
2022-08-26T05:16:51.503Z,14.95
2022-08-26T05:19:19.518Z,14.93
2022-08-26T05:21:47.666Z,14.96
2022-08-26T05:24:14.647Z,14.98
2022-08-26T05:26:41.699Z,15.10
2022-08-26T05:29:11.563Z,15.29
2022-08-26T05:31:38.374Z,15.48
2022-08-26T05:34:05.800Z,15.61
2022-08-26T05:36:35.563Z,15.71
2022-08-26T05:39:05.359Z,15.80
2022-08-26T05:41:38.285Z,15.84
2022-08-26T05:44:10.675Z,15.95
2022-08-26T05:46:39.780Z,16.02
2022-08-26T05:49:12.223Z,16.06
2022-08-26T05:51:42.146Z,16.09
2022-08-26T05:54:10.204Z,16.09
2022-08-26T05:56:37.895Z,16.19
2022-08-26T05:59:05.824Z,16.31
2022-08-26T06:01:37.535Z,16.45
2022-08-26T06:04:04.162Z,16.55
2022-08-26T06:06:34.726Z,16.64
2022-08-26T06:09:05.485Z,16.71
2022-08-26T06:11:32.892Z,16.78
2022-08-26T06:14:04.350Z,16.80
2022-08-26T06:16:35.035Z,16.82
2022-08-26T06:19:10.487Z,16.93
2022-08-26T06:21:41.534Z,17.04
2022-08-26T06:24:32.369Z,17.13
2022-08-26T06:27:09.438Z,17.22
2022-08-26T06:29:37.589Z,17.33
2022-08-26T06:32:05.337Z,17.43
2022-08-26T06:34:32.616Z,17.45
2022-08-26T06:37:02.693Z,17.47
2022-08-26T06:39:31.389Z,17.53
2022-08-26T06:41:59.914Z,17.67
2022-08-26T06:44:27.577Z,17.77
2022-08-26T06:46:54.818Z,17.85
2022-08-26T06:49:27.362Z,17.98
2022-08-26T06:51:58.240Z,18.09
2022-08-26T06:54:25.883Z,18.20
2022-08-26T06:56:52.383Z,18.31
2022-08-26T06:59:18.892Z,18.40
2022-08-26T07:01:46.426Z,18.53
2022-08-26T07:04:20.192Z,18.68
2022-08-26T07:06:50.247Z,18.71
2022-08-26T07:09:24.389Z,18.80
2022-08-26T07:11:52.858Z,18.96
2022-08-26T07:14:21.556Z,19.02
2022-08-26T07:16:50.535Z,19.02
2022-08-26T07:19:30.087Z,19.07
2022-08-26T07:22:03.957Z,19.14
2022-08-26T07:24:38.314Z,19.15
2022-08-26T07:27:11.379Z,19.01
2022-08-26T07:29:40.259Z,19.07
2022-08-26T07:32:08.016Z,19.07
2022-08-26T07:34:34.717Z,19.18
2022-08-26T07:37:01.629Z,19.27
2022-08-26T07:39:31.617Z,19.36
2022-08-26T07:42:07.896Z,19.47
2022-08-26T07:44:37.247Z,19.62
2022-08-26T07:47:03.895Z,19.68
2022-08-26T07:49:37.952Z,19.77
2022-08-26T07:52:06.053Z,19.79
2022-08-26T07:54:32.914Z,19.90
2022-08-26T07:56:59.619Z,19.84
2022-08-26T07:59:26.130Z,19.90
2022-08-26T08:01:52.859Z,19.93
2022-08-26T08:04:26.034Z,19.94
2022-08-26T08:06:53.462Z,20.04
2022-08-26T08:09:19.982Z,20.17
2022-08-26T08:11:49.645Z,20.28
2022-08-26T08:14:18.199Z,20.40
2022-08-26T08:16:48.852Z,20.51
2022-08-26T08:19:20.130Z,20.60
2022-08-26T08:21:48.402Z,20.71
2022-08-26T08:24:15.680Z,20.74
2022-08-26T08:26:42.319Z,20.83
2022-08-26T08:29:08.960Z,20.91
2022-08-26T08:31:55.995Z,20.94
2022-08-26T08:34:28.876Z,21.03
2022-08-26T08:36:57.255Z,21.10
2022-08-26T08:39:25.393Z,21.10
2022-08-26T08:42:13.843Z,21.08
2022-08-26T08:44:52.537Z,21.16
2022-08-26T08:47:35.810Z,21.14
2022-08-26T08:50:24.552Z,21.21
2022-08-26T08:53:12.861Z,21.36
2022-08-26T08:56:20.520Z,21.42
2022-08-26T08:59:02.898Z,21.50
2022-08-26T09:01:54.231Z,21.52
2022-08-26T09:04:40.789Z,21.64
2022-08-26T09:07:18.381Z,21.82
2022-08-26T09:09:59.054Z,22.02
2022-08-26T09:12:33.443Z,22.12
2022-08-26T09:15:34.998Z,22.18
2022-08-26T09:18:41.375Z,22.06
2022-08-26T09:21:18.038Z,22.10
2022-08-26T09:23:49.260Z,22.17
2022-08-26T09:26:23.511Z,22.19
2022-08-26T09:29:01.286Z,22.20
2022-08-26T09:31:37.687Z,22.14
2022-08-26T09:34:19.616Z,22.07
2022-08-26T09:36:56.234Z,22.16
2022-08-26T09:39:37.650Z,22.34
2022-08-26T09:42:27.534Z,22.53
2022-08-26T09:45:04.377Z,22.53
2022-08-26T09:47:51.892Z,22.60
2022-08-26T09:50:50.538Z,22.68
2022-08-26T09:53:28.561Z,22.89
2022-08-26T09:56:29.416Z,22.86
2022-08-26T09:58:57.253Z,22.82
2022-08-26T10:01:23.753Z,22.88
2022-08-26T10:03:51.370Z,22.87
2022-08-26T10:06:17.883Z,22.81
2022-08-26T10:08:54.281Z,22.76
2022-08-26T10:11:47.206Z,22.66
2022-08-26T10:17:36.942Z,22.85
2022-08-26T10:20:23.133Z,22.97
2022-08-26T10:23:32.282Z,22.97
2022-08-26T10:26:30.596Z,23.07
2022-08-26T10:29:08.881Z,23.19
2022-08-26T10:31:41.031Z,23.25
2022-08-26T10:34:09.742Z,23.39
2022-08-26T10:37:14.355Z,23.40
2022-08-26T10:40:01.514Z,23.37
2022-08-26T10:42:38.655Z,23.44
2022-08-26T10:45:19.682Z,23.42
2022-08-26T10:47:59.969Z,23.48
2022-08-26T10:50:36.028Z,23.51
2022-08-26T10:53:40.004Z,23.66
2022-08-26T10:56:43.342Z,23.75
2022-08-26T10:59:29.440Z,23.81
2022-08-26T11:02:15.849Z,23.90
2022-08-26T11:04:58.730Z,23.98
2022-08-26T11:07:52.553Z,24.12
2022-08-26T11:10:21.321Z,24.19
2022-08-26T11:13:00.371Z,24.27
2022-08-26T11:15:28.050Z,24.34
2022-08-26T11:18:40.935Z,24.30
2022-08-26T11:22:02.390Z,24.44
2022-08-26T11:24:57.345Z,24.32
2022-08-26T11:27:26.653Z,24.64
2022-08-26T11:30:27.908Z,24.38
2022-08-26T11:32:59.346Z,24.47
2022-08-26T11:35:26.148Z,24.57
2022-08-26T11:38:20.078Z,24.49
2022-08-26T11:41:03.288Z,24.65
2022-08-26T11:43:32.522Z,24.75
2022-08-26T11:46:06.207Z,24.75
2022-08-26T11:48:40.110Z,24.81
2022-08-26T11:51:23.353Z,24.80
2022-08-26T11:53:51.032Z,24.89
2022-08-26T11:56:33.904Z,24.83
2022-08-26T11:59:10.456Z,24.79
2022-08-26T12:01:43.797Z,24.82
2022-08-26T12:04:24.953Z,24.95
2022-08-26T12:06:53.401Z,25.01
2022-08-26T12:09:32.822Z,25.02
2022-08-26T12:12:17.389Z,25.04
2022-08-26T12:14:45.060Z,25.25
2022-08-26T12:17:25.683Z,25.19
2022-08-26T12:19:52.248Z,25.25
2022-08-26T12:22:34.523Z,25.22
2022-08-26T12:25:11.651Z,25.28
2022-08-26T12:27:44.185Z,25.32
2022-08-26T12:30:12.445Z,25.47
2022-08-26T12:32:57.231Z,25.39
2022-08-26T12:35:26.706Z,25.39
2022-08-26T12:37:55.129Z,25.50
2022-08-26T12:40:31.003Z,25.50
2022-08-26T12:43:01.758Z,25.54
2022-08-26T12:45:59.731Z,25.46
2022-08-26T12:48:32.708Z,25.34
2022-08-26T12:51:01.041Z,25.45
2022-08-26T12:53:34.795Z,25.44
2022-08-26T12:56:19.446Z,25.50
2022-08-26T12:59:03.689Z,25.61
2022-08-26T13:01:44.341Z,25.61
2022-08-26T13:04:35.804Z,25.61
2022-08-26T13:07:18.427Z,25.65
2022-08-26T13:09:44.948Z,25.64
2022-08-26T13:12:11.556Z,25.76
2022-08-26T13:14:38.366Z,25.86
2022-08-26T13:17:05.035Z,25.84
2022-08-26T13:19:31.563Z,25.64
2022-08-26T13:22:00.596Z,25.62
2022-08-26T13:24:39.683Z,25.62
2022-08-26T13:27:09.154Z,25.77
2022-08-26T13:29:36.264Z,25.84
2022-08-26T13:32:05.290Z,25.80
2022-08-26T13:34:32.463Z,25.78
2022-08-26T13:36:59.602Z,25.77
2022-08-26T13:39:26.838Z,25.73
2022-08-26T13:41:54.299Z,25.69
2022-08-26T13:44:21.648Z,25.76
2022-08-26T13:46:48.449Z,25.79
2022-08-26T13:49:15.174Z,25.82
2022-08-26T13:51:41.929Z,25.86
2022-08-26T13:54:08.981Z,25.94
2022-08-26T13:56:37.325Z,25.92
2022-08-26T13:59:05.655Z,25.86
2022-08-26T14:01:34.146Z,25.80
2022-08-26T14:04:01.053Z,25.77
2022-08-26T14:06:27.575Z,25.57
2022-08-26T14:08:54.552Z,25.58
2022-08-26T14:11:21.385Z,25.60
2022-08-26T14:13:48.009Z,25.60
2022-08-26T14:16:28.884Z,25.52
2022-08-26T14:18:55.427Z,25.51
2022-08-26T14:21:22.174Z,25.58
2022-08-26T14:23:48.759Z,25.63
2022-08-26T14:26:28.890Z,25.54
2022-08-26T14:29:03.710Z,25.36
2022-08-26T14:31:32.884Z,25.28
2022-08-26T14:34:04.804Z,25.30
2022-08-26T14:36:32.938Z,25.31
2022-08-26T14:39:06.067Z,25.25
2022-08-26T14:41:37.034Z,25.18
2022-08-26T14:44:10.493Z,25.01
2022-08-26T14:46:44.806Z,25.18
2022-08-26T14:49:12.002Z,25.05
2022-08-26T14:51:40.739Z,25.07
2022-08-26T14:54:12.514Z,25.08
2022-08-26T14:57:03.711Z,25.01
2022-08-26T14:59:43.327Z,24.98
2022-08-26T15:02:22.270Z,25.11
2022-08-26T15:04:59.731Z,25.01
2022-08-26T15:07:26.245Z,24.99
2022-08-26T15:09:53.013Z,24.91
2022-08-26T15:12:19.523Z,24.75
2022-08-26T15:14:46.049Z,24.59
2022-08-26T15:17:12.918Z,24.51
2022-08-26T15:19:39.511Z,24.55
2022-08-26T15:22:06.015Z,24.46
2022-08-26T15:24:32.541Z,24.38
2022-08-26T15:26:59.081Z,24.35
2022-08-26T15:29:25.713Z,24.41
2022-08-26T15:31:52.568Z,24.45
2022-08-26T15:34:23.734Z,24.29
2022-08-26T15:36:50.291Z,24.27
2022-08-26T15:39:17.804Z,24.18
2022-08-26T15:41:45.285Z,24.18
2022-08-26T15:44:14.163Z,24.11
2022-08-26T15:46:41.912Z,24.07
2022-08-26T15:49:09.455Z,24.01
2022-08-26T15:51:45.309Z,23.86
2022-08-26T15:54:16.472Z,23.89
2022-08-26T15:56:43.633Z,23.86
2022-08-26T15:59:11.422Z,23.88
2022-08-26T16:01:39.293Z,23.75
2022-08-26T16:04:06.372Z,23.71
2022-08-26T16:06:37.354Z,23.63
2022-08-26T16:09:06.083Z,23.53
2022-08-26T16:11:35.819Z,23.57
2022-08-26T16:14:04.849Z,23.62
2022-08-26T16:16:32.154Z,23.57
2022-08-26T16:18:58.849Z,23.56
2022-08-26T16:21:28.523Z,23.62
2022-08-26T16:23:57.508Z,23.57
2022-08-26T16:26:32.796Z,23.55
2022-08-26T16:29:02.466Z,23.59
2022-08-26T16:31:29.318Z,23.63
2022-08-26T16:33:56.382Z,23.68
2022-08-26T16:36:22.958Z,23.61
2022-08-26T16:38:55.164Z,23.52
2022-08-26T16:41:28.471Z,23.47
2022-08-26T16:43:57.094Z,23.38
2022-08-26T16:46:26.158Z,23.35
2022-08-26T16:48:58.122Z,23.25
2022-08-26T16:51:27.794Z,23.16
2022-08-26T16:53:58.588Z,22.96
2022-08-26T16:56:34.077Z,22.99
2022-08-26T16:59:04.012Z,22.90
2022-08-26T17:01:30.656Z,22.91
2022-08-26T17:03:57.237Z,22.83
2022-08-26T17:06:23.855Z,22.83
2022-08-26T17:08:50.400Z,22.92
2022-08-26T17:11:17.112Z,22.90
2022-08-26T17:13:43.685Z,22.83
2022-08-26T17:16:13.117Z,22.85
2022-08-26T17:18:39.752Z,22.79
2022-08-26T17:21:10.950Z,22.75
2022-08-26T17:23:40.895Z,22.73
2022-08-26T17:26:07.994Z,22.68
2022-08-26T17:28:34.950Z,22.73
2022-08-26T17:31:02.566Z,22.65
2022-08-26T17:33:29.547Z,22.63
2022-08-26T17:35:56.844Z,22.67
2022-08-26T17:38:24.007Z,22.72
2022-08-26T17:40:50.874Z,22.70
2022-08-26T17:43:18.495Z,22.70
2022-08-26T17:45:45.524Z,22.74
2022-08-26T17:48:12.567Z,22.77
2022-08-26T17:50:42.678Z,22.74
2022-08-26T17:53:18.486Z,22.73
2022-08-26T17:55:46.527Z,22.57
2022-08-26T17:58:14.806Z,22.57
2022-08-26T18:00:48.811Z,22.54
2022-08-26T18:03:16.300Z,22.52
2022-08-26T18:05:48.744Z,22.47
2022-08-26T18:08:15.287Z,22.47
2022-08-26T18:10:43.716Z,22.38
2022-08-26T18:13:11.237Z,22.31
2022-08-26T18:15:43.411Z,22.31
2022-08-26T18:18:10.155Z,22.32
2022-08-26T18:20:40.175Z,22.32
2022-08-26T18:23:06.956Z,22.28
2022-08-26T18:25:33.845Z,22.23
2022-08-26T18:28:00.573Z,22.23
2022-08-26T18:30:27.105Z,22.08
2022-08-26T18:32:53.642Z,22.13
2022-08-26T18:35:21.406Z,22.09
2022-08-26T18:37:47.943Z,22.11
2022-08-26T18:40:16.059Z,22.07
2022-08-26T18:42:42.700Z,22.08
2022-08-26T18:45:10.317Z,22.09
2022-08-26T18:47:42.968Z,22.08
2022-08-26T18:50:10.999Z,22.00
2022-08-26T18:52:37.902Z,21.88
2022-08-26T18:55:05.039Z,21.94
2022-08-26T18:57:31.612Z,21.97
2022-08-26T18:59:58.156Z,21.98
2022-08-26T19:02:24.768Z,21.98
2022-08-26T19:04:52.180Z,21.99
2022-08-26T19:07:20.408Z,21.85
2022-08-26T19:09:46.924Z,21.78
2022-08-26T19:12:20.367Z,21.70
2022-08-26T19:14:47.152Z,21.72
2022-08-26T19:17:13.979Z,21.69
2022-08-26T19:19:40.609Z,21.42
2022-08-26T19:22:07.623Z,21.34
2022-08-26T19:24:34.599Z,21.33
2022-08-26T19:27:03.482Z,21.29
2022-08-26T19:29:34.584Z,21.28
2022-08-26T19:32:02.860Z,21.29
2022-08-26T19:34:30.155Z,21.25
2022-08-26T19:36:58.276Z,21.23
2022-08-26T19:39:26.477Z,21.21
2022-08-26T19:41:53.349Z,21.15
2022-08-26T19:44:41.178Z,21.07
2022-08-26T19:47:10.941Z,20.95
2022-08-26T19:49:38.418Z,20.99
2022-08-26T19:52:05.970Z,20.91
2022-08-26T19:54:33.575Z,20.87
2022-08-26T19:57:00.371Z,20.88
2022-08-26T19:59:27.011Z,20.80
2022-08-26T20:02:01.063Z,20.73
2022-08-26T20:04:28.936Z,20.68
2022-08-26T20:06:58.722Z,20.65
2022-08-26T20:09:32.525Z,20.58
2022-08-26T20:11:59.554Z,20.58
2022-08-26T20:14:28.270Z,20.63
2022-08-26T20:16:54.877Z,20.70
2022-08-26T20:19:40.147Z,20.77
2022-08-26T20:22:07.615Z,20.73
2022-08-26T20:24:35.010Z,20.77
2022-08-26T20:27:07.318Z,20.81
2022-08-26T20:29:36.859Z,20.86
2022-08-26T20:32:05.992Z,20.91
2022-08-26T20:34:33.518Z,20.93
2022-08-26T20:37:00.287Z,20.98
2022-08-26T20:39:29.755Z,20.98
2022-08-26T20:41:58.292Z,20.95
2022-08-26T20:44:25.407Z,20.91
2022-08-26T20:46:52.072Z,20.88
2022-08-26T20:49:18.885Z,20.80
2022-08-26T20:51:51.323Z,20.72
2022-08-26T20:54:22.173Z,20.74
2022-08-26T20:56:53.613Z,20.74
2022-08-26T20:59:21.107Z,20.74
2022-08-26T21:01:49.124Z,20.68
2022-08-26T21:04:22.353Z,20.56
2022-08-26T21:06:52.911Z,20.53
2022-08-26T21:09:22.182Z,20.52
2022-08-26T21:11:50.379Z,20.51
2022-08-26T21:14:17.762Z,20.54
2022-08-26T21:16:45.978Z,20.57
2022-08-26T21:19:17.454Z,20.65
2022-08-26T21:21:44.465Z,20.54
2022-08-26T21:24:12.103Z,20.56
2022-08-26T21:26:39.200Z,20.59
2022-08-26T21:29:09.467Z,20.50
2022-08-26T21:31:41.001Z,20.45
2022-08-26T21:34:11.586Z,20.51
2022-08-26T21:36:38.167Z,20.48
2022-08-26T21:39:09.297Z,20.36
2022-08-26T21:41:38.047Z,20.36
2022-08-26T21:44:04.570Z,20.42
2022-08-26T21:46:31.685Z,20.52
2022-08-26T21:49:02.296Z,20.52
2022-08-26T21:51:33.238Z,20.39
2022-08-26T21:54:02.045Z,20.40
2022-08-26T21:56:54.264Z,20.30
2022-08-26T21:59:20.843Z,20.36
2022-08-26T22:01:47.846Z,20.42
2022-08-26T22:04:15.949Z,20.40
2022-08-26T22:06:46.429Z,20.44
2022-08-26T22:09:16.916Z,20.42
2022-08-26T22:11:43.899Z,20.35
2022-08-26T22:14:11.994Z,20.35
2022-08-26T22:16:38.691Z,20.35
2022-08-26T22:19:05.643Z,20.37
2022-08-26T22:21:33.911Z,20.39
2022-08-26T22:24:00.547Z,20.33
2022-08-26T22:26:31.954Z,20.33
2022-08-26T22:29:01.287Z,20.34
2022-08-26T22:31:37.259Z,20.39
2022-08-26T22:34:15.044Z,20.36
2022-08-26T22:36:45.460Z,20.36
2022-08-26T22:39:20.039Z,20.25
2022-08-26T22:41:48.760Z,20.23
2022-08-26T22:44:17.365Z,20.27
2022-08-26T22:46:45.089Z,20.24
2022-08-26T22:49:16.913Z,20.22
2022-08-26T22:51:45.151Z,20.15
2022-08-26T22:54:13.201Z,20.11
2022-08-26T22:56:40.147Z,20.09
2022-08-26T22:59:08.633Z,20.09
2022-08-26T23:01:38.933Z,19.99
2022-08-26T23:04:07.801Z,19.88
2022-08-26T23:06:37.733Z,19.86
2022-08-26T23:09:07.057Z,19.89
2022-08-26T23:11:35.333Z,19.94
2022-08-26T23:14:05.068Z,19.94
2022-08-26T23:16:40.682Z,19.93
2022-08-26T23:19:10.190Z,19.96
2022-08-26T23:21:36.841Z,19.97
2022-08-26T23:24:05.677Z,19.88
2022-08-26T23:26:34.151Z,19.84
2022-08-26T23:29:01.598Z,19.82
2022-08-26T23:31:28.346Z,19.88
2022-08-26T23:34:13.269Z,19.74
2022-08-26T23:36:42.117Z,19.78
2022-08-26T23:39:11.007Z,19.77
2022-08-26T23:41:38.279Z,19.72
2022-08-26T23:44:05.848Z,19.74
2022-08-26T23:46:35.215Z,19.78
2022-08-26T23:49:01.957Z,19.80
2022-08-26T23:51:46.950Z,19.88
2022-08-26T23:54:15.546Z,19.82
2022-08-26T23:59:08.910Z,19.80
